Time;durP1;ratioP1;P1;durP2;ratioP2;P2;SDS_P1;SDS_P2;PMS_P1;PMS_P2;Temp;Humidity;BMP_temperature;BMP_pressure;BME280_temperature;BME280_humidity;BME280_pressure;Samples;Min_cycle;Max_cycle;Signal;HPM_P1;HPM_P2
2022/06/08 00:02:34;;;;;;;1.90;1.17;;;18.00;99.90;;;;;;6302737;28;20476;-61
2022/06/08 00:05:37;;;;;;;3.63;1.27;;;18.00;99.90;;;;;;6303073;28;20461;-61
2022/06/08 00:08:40;;;;;;;1.40;1.13;;;18.00;99.90;;;;;;6302800;28;20865;-62
2022/06/08 00:11:43;;;;;;;1.10;1.00;;;17.90;99.90;;;;;;6302663;28;20480;-62
2022/06/08 00:14:48;;;;;;;1.20;1.00;;;17.90;99.90;;;;;;6302802;28;20438;-62
2022/06/08 00:17:51;;;;;;;1.93;1.10;;;17.90;99.90;;;;;;6302599;28;20450;-62
2022/06/08 00:20:54;;;;;;;3.03;0.90;;;17.90;99.90;;;;;;6303041;28;20460;-62
2022/06/08 00:23:58;;;;;;;0.93;0.93;;;17.90;99.90;;;;;;6302545;28;20461;-62
2022/06/08 00:27:01;;;;;;;2.33;0.83;;;17.90;99.90;;;;;;6302679;28;20476;-62
2022/06/08 00:30:08;;;;;;;0.97;0.97;;;17.90;99.90;;;;;;6302647;28;20476;-62
2022/06/08 00:33:11;;;;;;;1.77;1.10;;;17.90;99.90;;;;;;6302232;28;20507;-62
2022/06/08 00:36:14;;;;;;;1.30;1.20;;;17.90;99.90;;;;;;6302212;28;20484;-61
2022/06/08 00:39:17;;;;;;;2.03;0.80;;;17.90;99.90;;;;;;6302685;28;20470;-62
2022/06/08 00:42:21;;;;;;;1.10;0.67;;;17.80;99.90;;;;;;6297036;28;20477;-62
2022/06/08 00:45:26;;;;;;;1.20;1.10;;;17.80;99.90;;;;;;6302482;28;20480;-62
2022/06/08 00:48:33;;;;;;;1.47;0.80;;;17.80;99.90;;;;;;6302412;28;20545;-62
2022/06/08 00:51:36;;;;;;;1.73;1.00;;;17.90;99.90;;;;;;6301780;28;20480;-61
2022/06/08 00:54:43;;;;;;;1.50;0.80;;;17.80;99.90;;;;;;6301819;28;20465;-61
2022/06/08 00:57:51;;;;;;;1.10;0.80;;;17.80;99.90;;;;;;6301433;28;20958;-61
2022/06/08 01:00:58;;;;;;;1.00;1.00;;;17.80;99.90;;;;;;6301678;28;20993;-61
2022/06/08 01:04:10;;;;;;;1.70;0.90;;;17.90;99.90;;;;;;6301674;28;20489;-61
2022/06/08 01:07:18;;;;;;;1.40;0.83;;;17.90;99.90;;;;;;6301489;28;20469;-62
2022/06/08 01:10:24;;;;;;;2.07;1.20;;;17.90;99.90;;;;;;6301417;28;20813;-62
2022/06/08 01:13:29;;;;;;;1.00;0.90;;;17.90;99.90;;;;;;6301017;28;20484;-62
2022/06/08 01:16:34;;;;;;;1.33;1.07;;;17.90;99.90;;;;;;6301391;28;20970;-62
2022/06/08 01:19:40;;;;;;;0.83;0.83;;;17.90;99.90;;;;;;6300870;28;20474;-62
2022/06/08 01:22:44;;;;;;;1.30;1.20;;;17.90;99.90;;;;;;6300917;28;20488;-62
2022/06/08 01:26:03;;;;;;;1.77;1.20;;;18.00;99.90;;;;;;6300969;28;20480;-62
2022/06/08 01:29:11;;;;;;;1.67;1.57;;;18.00;99.90;;;;;;6300895;28;20536;-62
2022/06/08 01:32:23;;;;;;;1.40;1.30;;;18.00;99.90;;;;;;6300636;28;20484;-62
2022/06/08 01:35:38;;;;;;;1.37;1.20;;;17.90;99.90;;;;;;6301046;28;20481;-61
2022/06/08 01:38:50;;;;;;;1.27;1.17;;;17.90;99.90;;;;;;6301073;28;20441;-62
2022/06/08 01:42:10;;;;;;;1.60;1.00;;;17.80;99.90;;;;;;6301116;28;20461;-62
2022/06/08 01:45:33;;;;;;;1.40;1.30;;;17.80;99.90;;;;;;6291606;28;20470;-62
2022/06/08 01:49:00;;;;;;;1.17;1.07;;;17.70;99.90;;;;;;6300677;28;20478;-61
2022/06/08 01:52:15;;;;;;;1.30;1.20;;;17.70;99.90;;;;;;6300325;28;20485;-61
2022/06/08 01:55:26;;;;;;;1.40;1.30;;;17.80;99.90;;;;;;6299940;28;20877;-61
2022/06/08 01:58:40;;;;;;;1.67;1.57;;;17.70;99.90;;;;;;6300383;28;20466;-62
2022/06/08 02:01:48;;;;;;;1.50;1.40;;;17.70;99.90;;;;;;6300002;28;20473;-61
2022/06/08 02:04:56;;;;;;;1.73;1.53;;;17.70;99.90;;;;;;6300123;28;20548;-62
2022/06/08 02:08:06;;;;;;;1.40;1.30;;;17.70;99.90;;;;;;6299974;28;20469;-62
2022/06/08 02:11:17;;;;;;;1.40;1.23;;;17.80;99.90;;;;;;6299928;28;20476;-62
2022/06/08 02:14:24;;;;;;;5.73;1.90;;;17.80;99.90;;;;;;6299748;28;20473;-62
2022/06/08 02:17:32;;;;;;;2.10;1.50;;;17.80;99.90;;;;;;6300052;28;20466;-62
2022/06/08 02:20:40;;;;;;;1.60;1.50;;;17.70;99.90;;;;;;6300186;28;20770;-62
2022/06/08 02:23:48;;;;;;;1.67;1.57;;;17.60;99.90;;;;;;6300514;28;20449;-62
2022/06/08 02:26:56;;;;;;;2.83;1.57;;;17.60;99.90;;;;;;6299638;28;20765;-61
2022/06/08 02:30:05;;;;;;;2.83;1.33;;;17.60;99.90;;;;;;6300546;28;20481;-61
2022/06/08 02:36:40;;;;;;;1.53;1.43;;;17.50;99.90;;;;;;6299752;28;20477;-62
2022/06/08 02:39:48;;;;;;;1.60;1.50;;;17.60;99.90;;;;;;6299349;28;21163;-62
2022/06/08 02:42:56;;;;;;;2.33;1.60;;;17.60;99.90;;;;;;6299284;28;20996;-62
2022/06/08 02:46:08;;;;;;;1.90;1.63;;;17.60;99.90;;;;;;6299568;28;20473;-62
2022/06/08 02:49:11;;;;;;;2.10;1.80;;;17.60;99.90;;;;;;6294679;28;20635;-62
2022/06/08 02:52:19;;;;;;;2.60;1.90;;;17.60;99.90;;;;;;6299455;28;20497;-62
2022/06/08 02:55:30;;;;;;;3.63;1.90;;;17.60;99.90;;;;;;6300037;28;20481;-62
2022/06/08 02:58:39;;;;;;;1.53;1.43;;;17.60;99.90;;;;;;6299258;28;20476;-62
2022/06/08 03:01:47;;;;;;;1.67;1.57;;;17.60;99.90;;;;;;6299271;28;20562;-62
2022/06/08 03:04:55;;;;;;;1.53;1.43;;;17.60;99.90;;;;;;6299127;28;20469;-62
2022/06/08 03:08:02;;;;;;;1.57;1.47;;;17.50;99.90;;;;;;6298983;28;20469;-62
2022/06/08 03:11:07;;;;;;;1.40;1.30;;;17.50;99.90;;;;;;6298700;28;20469;-62
2022/06/08 03:14:14;;;;;;;3.67;1.77;;;17.50;99.90;;;;;;6298561;28;20477;-62
2022/06/08 03:17:24;;;;;;;2.13;1.47;;;17.50;99.90;;;;;;6299000;28;20473;-62
2022/06/08 03:20:28;;;;;;;5.07;1.97;;;17.50;99.90;;;;;;6298998;28;20473;-62
2022/06/08 03:23:31;;;;;;;3.00;1.80;;;17.50;99.90;;;;;;6299117;28;20489;-62
2022/06/08 03:26:39;;;;;;;2.00;1.80;;;17.60;99.90;;;;;;6298993;28;20465;-63
2022/06/08 03:29:43;;;;;;;1.73;1.60;;;17.60;99.90;;;;;;6298794;28;20480;-62
2022/06/08 03:32:46;;;;;;;1.57;1.47;;;17.70;99.90;;;;;;6299313;28;20461;-62
2022/06/08 03:35:50;;;;;;;1.97;1.80;;;17.70;99.90;;;;;;6298851;28;20450;-62
2022/06/08 03:38:53;;;;;;;1.90;1.80;;;17.70;99.90;;;;;;6299205;28;20437;-62
2022/06/08 03:41:59;;;;;;;2.87;1.70;;;17.70;99.90;;;;;;6298827;28;20461;-62
2022/06/08 03:45:04;;;;;;;1.93;1.83;;;17.70;99.90;;;;;;6303326;28;20461;-62
2022/06/08 03:48:09;;;;;;;2.33;2.13;;;17.80;99.90;;;;;;6303597;28;20468;-62
2022/06/08 03:51:15;;;;;;;2.13;1.50;;;17.90;99.90;;;;;;6303187;28;20480;-62
2022/06/08 03:54:23;;;;;;;2.80;1.90;;;17.90;99.90;;;;;;6302892;28;20484;-62
2022/06/08 03:57:29;;;;;;;1.67;1.57;;;18.00;99.90;;;;;;6303056;28;20465;-62
2022/06/08 04:00:34;;;;;;;2.70;1.80;;;18.00;99.90;;;;;;6303025;28;20480;-62
2022/06/08 04:03:37;;;;;;;2.13;1.93;;;18.10;99.90;;;;;;6302913;28;20480;-62
2022/06/08 04:06:41;;;;;;;3.37;1.73;;;18.10;99.90;;;;;;6303085;28;20469;-63
2022/06/08 04:09:44;;;;;;;3.03;1.90;;;18.20;99.90;;;;;;6302520;28;20492;-62
2022/06/08 04:12:47;;;;;;;2.80;2.17;;;18.20;99.90;;;;;;6302828;28;20231;-62
2022/06/08 04:15:52;;;;;;;1.97;1.63;;;18.20;99.90;;;;;;6302556;28;20227;-62
2022/06/08 04:18:55;;;;;;;2.63;1.70;;;18.20;99.90;;;;;;6302787;28;20480;-62
2022/06/08 04:21:59;;;;;;;2.50;2.10;;;18.20;99.90;;;;;;6302607;28;20473;-62
2022/06/08 04:25:03;;;;;;;2.90;1.90;;;18.10;99.90;;;;;;6302806;28;20476;-62
2022/06/08 04:28:07;;;;;;;3.80;1.80;;;18.10;99.90;;;;;;6302360;28;20465;-62
2022/06/08 04:31:12;;;;;;;1.97;1.83;;;18.00;99.90;;;;;;6302525;28;20469;-62
2022/06/08 04:34:16;;;;;;;3.80;3.10;;;18.00;99.90;;;;;;6302471;28;20509;-62
2022/06/08 04:37:19;;;;;;;2.93;1.90;;;18.00;99.90;;;;;;6302611;28;20469;-62
2022/06/08 04:40:24;;;;;;;5.50;2.00;;;18.10;99.90;;;;;;6302424;28;21011;-62
2022/06/08 04:43:27;;;;;;;4.23;2.47;;;18.10;99.90;;;;;;6302123;28;20614;-62
2022/06/08 04:46:32;;;;;;;3.17;2.10;;;18.10;99.90;;;;;;6302270;28;20465;-62
2022/06/08 04:49:36;;;;;;;5.23;2.07;;;18.10;99.90;;;;;;6301868;28;20477;-62
2022/06/08 04:52:39;;;;;;;2.90;2.10;;;18.10;99.90;;;;;;6301744;28;20481;-62
2022/06/08 04:55:43;;;;;;;2.90;2.20;;;18.20;99.90;;;;;;6301720;28;20480;-62
2022/06/08 04:58:46;;;;;;;6.27;2.10;;;18.20;99.90;;;;;;6302249;28;20473;-63
2022/06/08 05:01:50;;;;;;;2.43;2.10;;;18.20;99.90;;;;;;6301450;28;20480;-62
2022/06/08 05:04:54;;;;;;;7.40;3.13;;;18.30;99.90;;;;;;6301500;28;20476;-62
2022/06/08 05:07:58;;;;;;;2.83;2.63;;;18.30;99.90;;;;;;6302378;28;21021;-62
2022/06/08 05:11:04;;;;;;;2.90;2.40;;;18.40;99.90;;;;;;6302327;28;20483;-62
2022/06/08 05:14:07;;;;;;;2.60;2.40;;;18.50;99.90;;;;;;6300957;28;20473;-62
2022/06/08 05:17:12;;;;;;;2.63;2.40;;;18.50;99.90;;;;;;6301358;28;20777;-62
2022/06/08 05:20:17;;;;;;;3.87;2.50;;;18.60;99.90;;;;;;6301233;28;20235;-62
2022/06/08 05:23:23;;;;;;;5.33;2.50;;;18.80;99.90;;;;;;6300930;28;20238;-62
2022/06/08 05:26:26;;;;;;;2.20;2.00;;;18.90;99.90;;;;;;6300804;28;20555;-62
2022/06/08 05:29:30;;;;;;;4.30;2.20;;;19.00;99.90;;;;;;6300882;28;20233;-62
2022/06/08 05:32:35;;;;;;;2.13;1.93;;;19.20;99.90;;;;;;6300613;28;20245;-62
2022/06/08 05:35:39;;;;;;;2.03;1.83;;;19.40;99.90;;;;;;6300991;28;20210;-62
2022/06/08 05:38:42;;;;;;;2.33;1.90;;;19.60;99.90;;;;;;6300908;28;20233;-63
2022/06/08 05:41:45;;;;;;;4.73;2.60;;;19.80;99.90;;;;;;6300314;28;20219;-62
2022/06/08 05:44:48;;;;;;;3.60;2.40;;;20.00;99.90;;;;;;6300605;28;20222;-62
2022/06/08 05:47:53;;;;;;;3.10;2.10;;;20.00;99.90;;;;;;6300365;28;20207;-62
2022/06/08 05:50:56;;;;;;;5.27;2.40;;;20.10;99.90;;;;;;6300235;28;21197;-62
2022/06/08 05:53:59;;;;;;;2.90;1.87;;;20.00;99.90;;;;;;6299847;28;20551;-62
2022/06/08 05:57:03;;;;;;;3.60;2.73;;;19.90;99.90;;;;;;6295543;28;20239;-62
2022/06/08 06:00:10;;;;;;;3.90;2.57;;;19.70;99.90;;;;;;6300169;28;20227;-62
2022/06/08 06:03:14;;;;;;;2.50;2.30;;;19.60;99.90;;;;;;6300224;28;20234;-62
2022/06/08 06:06:18;;;;;;;3.63;2.27;;;19.60;99.90;;;;;;6299943;28;20554;-62
2022/06/08 06:09:21;;;;;;;2.70;2.50;;;19.60;99.90;;;;;;6300122;28;20237;-62
2022/06/08 06:12:24;;;;;;;3.03;2.33;;;19.70;99.90;;;;;;6299913;28;20555;-62
2022/06/08 06:15:28;;;;;;;3.20;2.90;;;19.70;99.90;;;;;;6299574;28;20678;-62
2022/06/08 06:18:32;;;;;;;3.23;2.90;;;19.60;99.90;;;;;;6299649;28;20234;-62
2022/06/08 06:21:35;;;;;;;2.60;2.40;;;19.60;99.90;;;;;;6300212;28;20226;-62
2022/06/08 06:24:39;;;;;;;3.40;2.37;;;19.70;99.90;;;;;;6299656;28;20242;-63
2022/06/08 06:27:42;;;;;;;4.10;2.70;;;19.70;99.90;;;;;;6299863;28;20227;-63
2022/06/08 06:30:45;;;;;;;5.23;2.20;;;19.80;99.90;;;;;;6299793;28;20233;-63
2022/06/08 06:33:50;;;;;;;2.17;1.97;;;19.80;99.90;;;;;;6299200;28;20227;-64
2022/06/08 06:36:54;;;;;;;2.87;2.30;;;19.90;99.90;;;;;;6299789;28;20249;-63
2022/06/08 06:39:58;;;;;;;3.63;2.60;;;20.00;99.90;;;;;;6299160;28;20567;-63
2022/06/08 06:43:01;;;;;;;3.53;2.73;;;20.10;99.90;;;;;;6299544;28;20246;-63
2022/06/08 06:46:05;;;;;;;2.60;2.30;;;20.20;99.90;;;;;;6298899;28;20579;-63
2022/06/08 06:49:09;;;;;;;4.87;2.30;;;20.40;99.90;;;;;;6299619;28;20557;-64
2022/06/08 06:52:14;;;;;;;3.73;2.67;;;20.40;99.90;;;;;;6299153;28;20583;-64
2022/06/08 06:55:22;;;;;;;3.80;2.57;;;20.40;99.90;;;;;;6299403;28;20235;-64
2022/06/08 06:58:25;;;;;;;10.00;3.00;;;20.40;99.90;;;;;;6299559;28;20231;-64
2022/06/08 07:01:34;;;;;;;4.80;2.97;;;20.40;99.90;;;;;;6294483;28;20318;-64
2022/06/08 07:04:39;;;;;;;5.10;2.47;;;20.30;99.90;;;;;;6299391;28;20238;-65
2022/06/08 07:07:42;;;;;;;3.03;2.73;;;20.30;99.90;;;;;;6299590;28;20231;-63
2022/06/08 07:11:32;;;;;;;2.43;2.23;;;20.30;99.90;;;;;;6299036;28;20223;-63
2022/06/08 07:14:13;;;;;;;3.20;2.70;;;20.20;99.90;;;;;;6298990;28;20231;-64
2022/06/08 07:17:16;;;;;;;2.27;2.10;;;20.20;99.90;;;;;;6299158;28;20231;-64
2022/06/08 07:20:21;;;;;;;2.20;1.90;;;20.20;99.90;;;;;;6303881;28;20227;-64
2022/06/08 07:23:24;;;;;;;4.57;2.70;;;20.20;99.90;;;;;;6303815;28;20241;-64
2022/06/08 07:26:28;;;;;;;3.53;2.23;;;20.20;99.90;;;;;;6303138;28;20571;-64
2022/06/08 07:29:31;;;;;;;3.80;2.40;;;20.20;99.90;;;;;;6303820;28;20230;-63
2022/06/08 07:32:35;;;;;;;3.23;2.60;;;20.30;99.90;;;;;;6303683;28;20680;-63
2022/06/08 07:35:40;;;;;;;2.67;2.43;;;20.30;99.90;;;;;;6303341;28;20241;-63
2022/06/08 07:38:43;;;;;;;3.40;3.10;;;20.30;99.90;;;;;;6303707;28;20555;-63
2022/06/08 07:41:49;;;;;;;5.83;3.10;;;20.40;99.90;;;;;;6303066;28;20547;-63
2022/06/08 07:44:52;;;;;;;3.73;2.67;;;20.50;99.90;;;;;;6303807;28;20199;-63
2022/06/08 07:51:18;;;;;;;4.33;2.37;;;20.50;99.90;;;;;;6303167;28;20677;-64
2022/06/08 07:54:23;;;;;;;3.80;2.60;;;20.60;99.90;;;;;;6303167;28;20228;-63
2022/06/08 07:57:27;;;;;;;4.63;2.80;;;20.80;99.90;;;;;;6303277;28;20227;-63
2022/06/08 08:00:31;;;;;;;5.07;2.47;;;20.70;99.90;;;;;;6303522;28;20219;-63
2022/06/08 08:03:34;;;;;;;2.57;2.30;;;20.60;99.90;;;;;;6302647;28;20235;-64
2022/06/08 08:06:39;;;;;;;4.13;2.30;;;20.60;99.90;;;;;;6294079;28;20417;-64
2022/06/08 08:09:42;;;;;;;5.03;2.37;;;20.70;99.90;;;;;;6302716;28;20227;-64
2022/06/08 08:12:46;;;;;;;3.10;2.47;;;20.80;99.90;;;;;;6302515;28;20231;-64
2022/06/08 08:15:51;;;;;;;3.70;2.37;;;20.90;99.90;;;;;;6302649;28;20237;-64
2022/06/08 08:18:54;;;;;;;4.27;2.30;;;21.10;99.90;;;;;;6300441;28;20228;-64
2022/06/08 08:22:00;;;;;;;5.33;2.13;;;21.20;99.90;;;;;;6301887;28;20238;-64
2022/06/08 08:25:04;;;;;;;2.30;1.90;;;21.30;99.90;;;;;;6302551;28;20227;-64
2022/06/08 08:28:08;;;;;;;3.33;1.90;;;21.30;99.90;;;;;;6302214;28;20238;-64
2022/06/08 08:31:11;;;;;;;5.50;1.90;;;21.70;99.90;;;;;;6300755;28;20231;-64
2022/06/08 08:34:15;;;;;;;3.50;2.20;;;21.90;99.90;;;;;;6302084;28;20246;-64
2022/06/08 08:37:19;;;;;;;2.87;2.20;;;22.20;99.70;;;;;;6301405;28;20234;-64
2022/06/08 08:40:38;;;;;;;3.07;2.30;;;22.30;99.30;;;;;;6301966;28;20227;-64
2022/06/08 08:43:42;;;;;;;7.00;2.37;;;22.30;99.60;;;;;;6301396;28;20241;-64
2022/06/08 08:46:55;;;;;;;4.17;2.40;;;22.20;99.20;;;;;;6301923;28;20237;-64
2022/06/08 08:50:01;;;;;;;2.60;2.40;;;22.20;99.40;;;;;;6301639;28;20235;-64
2022/06/08 08:53:23;;;;;;;3.67;3.37;;;22.30;99.20;;;;;;6301454;28;20234;-64
2022/06/08 08:56:34;;;;;;;5.80;2.60;;;22.30;99.20;;;;;;6301396;28;20334;-64
2022/06/08 08:59:37;;;;;;;3.43;2.00;;;22.30;98.80;;;;;;6301579;28;20233;-64
2022/06/08 09:06:14;;;;;;;3.87;2.17;;;22.60;98.00;;;;;;6301689;28;20227;-64
2022/06/08 09:09:23;;;;;;;3.10;2.40;;;22.80;97.50;;;;;;6297206;28;20234;-64
2022/06/08 09:12:26;;;;;;;3.10;2.17;;;23.00;97.60;;;;;;6301225;28;20227;-65
2022/06/08 09:15:47;;;;;;;4.60;2.63;;;22.80;98.40;;;;;;6301582;28;20691;-64
2022/06/08 09:18:50;;;;;;;2.93;2.30;;;22.90;98.50;;;;;;6301166;28;20224;-64
2022/06/08 09:21:59;;;;;;;3.73;2.80;;;23.10;98.20;;;;;;6301036;28;20249;-64
2022/06/08 09:25:25;;;;;;;2.60;2.37;;;23.20;98.20;;;;;;6301513;28;20229;-64
2022/06/08 09:28:31;;;;;;;6.33;2.80;;;23.40;98.30;;;;;;6300523;28;20560;-65
2022/06/08 09:31:36;;;;;;;7.50;3.00;;;23.70;97.70;;;;;;6300789;28;20547;-64
2022/06/08 09:34:54;;;;;;;2.47;2.27;;;24.00;97.60;;;;;;6301011;28;20255;-64
2022/06/08 09:38:02;;;;;;;4.13;2.93;;;24.20;97.00;;;;;;6300539;28;20231;-64
2022/06/08 09:41:15;;;;;;;4.47;2.47;;;24.10;95.70;;;;;;6300301;28;20230;-63
2022/06/08 09:44:28;;;;;;;2.60;2.30;;;24.00;95.60;;;;;;6301632;28;20270;-65
2022/06/08 09:51:27;;;;;;;4.70;2.43;;;24.20;95.60;;;;;;6300658;28;20625;-66
2022/06/08 09:54:39;;;;;;;6.23;2.50;;;24.30;94.60;;;;;;6300001;28;20241;-64
2022/06/08 09:57:50;;;;;;;2.30;2.10;;;24.40;93.80;;;;;;6300312;28;20231;-64
2022/06/08 10:00:59;;;;;;;4.50;1.90;;;24.50;93.30;;;;;;6300589;28;20239;-63
2022/06/08 10:04:18;;;;;;;3.63;2.20;;;24.40;93.20;;;;;;6300221;28;20708;-63
2022/06/08 10:07:32;;;;;;;2.67;2.40;;;24.40;92.90;;;;;;6300854;28;20224;-63
2022/06/08 10:10:42;;;;;;;4.90;2.50;;;24.20;92.20;;;;;;6300287;28;20231;-62
2022/06/08 10:13:49;;;;;;;5.00;2.40;;;24.10;92.10;;;;;;6299948;28;20246;-62
2022/06/08 10:16:58;;;;;;;5.40;2.40;;;24.10;92.60;;;;;;6290933;28;20277;-62
2022/06/08 10:20:07;;;;;;;3.43;2.80;;;24.20;92.00;;;;;;6299816;28;20281;-62
2022/06/08 10:23:24;;;;;;;4.37;2.47;;;24.10;92.10;;;;;;6299794;28;20227;-62
2022/06/08 10:26:34;;;;;;;4.07;2.40;;;24.30;92.20;;;;;;6299846;28;20223;-62
2022/06/08 10:29:43;;;;;;;4.37;2.57;;;24.30;91.70;;;;;;6299751;28;20552;-62
2022/06/08 10:32:53;;;;;;;3.90;2.30;;;24.40;91.40;;;;;;6299675;28;20237;-62
2022/06/08 10:35:57;;;;;;;3.33;2.43;;;24.40;91.60;;;;;;6299654;28;20518;-62
2022/06/08 10:39:01;;;;;;;3.90;2.70;;;24.40;91.10;;;;;;6299644;28;20234;-62
2022/06/08 10:42:40;;;;;;;3.80;2.07;;;24.30;91.00;;;;;;6299509;28;20219;-63
2022/06/08 10:45:52;;;;;;;4.00;2.47;;;24.10;91.20;;;;;;6299834;28;20230;-63
2022/06/08 10:48:55;;;;;;;8.27;3.50;;;23.90;91.20;;;;;;6299709;28;20231;-63
2022/06/08 10:52:15;;;;;;;3.83;2.77;;;23.80;91.20;;;;;;6298660;28;20687;-63
2022/06/08 10:55:46;;;;;;;4.17;2.30;;;23.70;91.00;;;;;;6299276;28;20231;-63
2022/06/08 10:58:56;;;;;;;2.10;1.83;;;23.60;90.80;;;;;;6299475;28;20233;-62
2022/06/08 11:02:28;;;;;;;2.43;2.23;;;23.50;90.50;;;;;;6299241;28;20231;-62
2022/06/08 11:05:35;;;;;;;3.60;2.20;;;23.30;90.70;;;;;;6299155;28;20308;-62
2022/06/08 11:08:52;;;;;;;2.43;1.90;;;23.30;90.90;;;;;;6299074;28;20246;-62
2022/06/08 11:12:03;;;;;;;3.20;1.70;;;23.30;90.80;;;;;;6298375;28;20700;-62
2022/06/08 11:15:26;;;;;;;2.13;1.93;;;23.20;91.70;;;;;;6298934;28;20228;-62
2022/06/08 11:18:41;;;;;;;2.43;2.23;;;23.20;91.30;;;;;;6297294;28;20227;-62
2022/06/08 11:21:48;;;;;;;2.63;1.90;;;23.20;91.60;;;;;;6298866;28;20562;-62
2022/06/08 11:24:55;;;;;;;4.43;1.70;;;23.20;91.50;;;;;;6298925;28;20238;-62
2022/06/08 11:28:34;;;;;;;2.23;2.00;;;23.40;90.60;;;;;;6298692;28;20227;-62
2022/06/08 11:31:57;;;;;;;3.50;1.87;;;23.60;90.20;;;;;;6298424;28;20231;-62
2022/06/08 11:35:30;;;;;;;2.27;2.07;;;24.10;88.80;;;;;;6298622;28;20245;-62
2022/06/08 11:38:56;;;;;;;2.10;1.90;;;24.40;87.40;;;;;;6281550;28;20227;-62
2022/06/08 11:42:10;;;;;;;9.30;2.23;;;24.80;86.10;;;;;;6293156;28;20238;-62
2022/06/08 11:45:18;;;;;;;4.27;1.87;;;25.30;84.20;;;;;;6298773;28;20556;-62
2022/06/08 11:48:24;;;;;;;3.07;1.90;;;25.90;82.90;;;;;;6299447;28;20230;-62
2022/06/08 11:51:37;;;;;;;3.90;2.10;;;26.40;80.90;;;;;;6298587;28;20234;-62
2022/06/08 11:54:40;;;;;;;3.20;2.90;;;26.80;79.80;;;;;;6298679;28;20245;-62
2022/06/08 11:57:48;;;;;;;3.30;2.07;;;27.30;77.30;;;;;;6298905;28;20237;-63
2022/06/08 12:00:53;;;;;;;3.37;2.40;;;27.50;74.70;;;;;;6298839;28;20226;-63
2022/06/08 12:04:01;;;;;;;2.00;1.80;;;27.90;74.10;;;;;;6299654;28;20582;-63
2022/06/08 12:07:05;;;;;;;3.83;1.87;;;27.70;71.10;;;;;;6303050;28;20226;-63
2022/06/08 12:10:14;;;;;;;3.40;2.00;;;27.50;72.20;;;;;;6303195;28;20332;-64
2022/06/08 12:13:22;;;;;;;2.40;1.87;;;27.70;70.70;;;;;;6302818;28;20223;-64
2022/06/08 12:16:29;;;;;;;2.23;1.80;;;28.00;70.60;;;;;;6302988;28;20230;-63
2022/06/08 12:19:42;;;;;;;2.57;2.00;;;28.10;69.90;;;;;;6303138;28;20567;-63
2022/06/08 12:23:00;;;;;;;2.43;2.23;;;28.20;69.20;;;;;;6293670;28;20231;-64
2022/06/08 12:26:03;;;;;;;3.03;2.20;;;28.20;68.50;;;;;;6302644;28;20237;-64
2022/06/08 12:29:26;;;;;;;3.83;2.40;;;27.70;70.90;;;;;;6302301;28;20226;-63
2022/06/08 12:32:36;;;;;;;2.30;2.10;;;27.60;70.20;;;;;;6302506;28;20257;-63
2022/06/08 12:35:52;;;;;;;3.13;2.10;;;27.40;70.50;;;;;;6302598;28;20317;-64
2022/06/08 12:39:10;;;;;;;2.43;2.10;;;27.50;70.80;;;;;;6302700;28;20610;-63
2022/06/08 12:42:25;;;;;;;2.43;2.10;;;27.60;69.40;;;;;;6302098;28;20699;-64
2022/06/08 12:45:37;;;;;;;2.57;2.00;;;27.80;69.80;;;;;;6302340;28;20700;-63
2022/06/08 12:48:46;;;;;;;2.30;1.77;;;28.00;69.70;;;;;;6301962;28;20561;-63
2022/06/08 12:51:57;;;;;;;3.73;2.77;;;28.10;69.80;;;;;;6301501;28;20559;-63
2022/06/08 12:55:04;;;;;;;4.93;1.97;;;27.90;68.50;;;;;;6301821;28;20565;-63
2022/06/08 12:58:08;;;;;;;4.73;2.30;;;27.70;68.40;;;;;;6301648;28;20234;-63
2022/06/08 13:01:13;;;;;;;2.27;2.10;;;27.50;68.80;;;;;;6301378;28;20230;-63
2022/06/08 13:04:20;;;;;;;3.00;2.40;;;27.30;70.20;;;;;;6301796;28;20672;-63
2022/06/08 13:07:27;;;;;;;3.00;2.33;;;27.20;70.50;;;;;;6301676;28;20584;-63
2022/06/08 13:10:32;;;;;;;2.20;2.00;;;27.00;71.20;;;;;;6301489;28;20226;-63
2022/06/08 13:13:40;;;;;;;3.13;2.60;;;26.80;72.60;;;;;;6301035;28;20227;-64
2022/06/08 13:16:44;;;;;;;3.83;2.50;;;26.60;71.00;;;;;;6300750;28;20573;-63
2022/06/08 13:19:48;;;;;;;2.80;2.60;;;26.50;72.50;;;;;;6301443;28;20230;-63
2022/06/08 13:22:51;;;;;;;3.43;2.20;;;26.30;73.50;;;;;;6301228;28;20241;-63
2022/06/08 13:26:14;;;;;;;2.87;2.27;;;26.10;73.50;;;;;;6300957;28;20311;-63
2022/06/08 13:29:18;;;;;;;2.80;1.90;;;25.90;73.90;;;;;;6301255;28;20226;-64
2022/06/08 13:32:22;;;;;;;2.37;2.17;;;25.80;74.80;;;;;;6301205;28;20256;-63
2022/06/08 13:35:28;;;;;;;4.47;3.00;;;25.70;74.40;;;;;;6301156;28;20310;-64
2022/06/08 13:38:31;;;;;;;3.00;2.37;;;25.60;75.00;;;;;;6300617;28;20222;-63
2022/06/08 13:41:39;;;;;;;3.10;2.20;;;25.50;75.00;;;;;;6300523;28;20222;-63
2022/06/08 13:44:47;;;;;;;2.70;2.50;;;25.50;74.30;;;;;;6300858;28;20210;-64
2022/06/08 13:47:55;;;;;;;2.50;2.30;;;25.40;75.10;;;;;;6300498;28;20528;-63
2022/06/08 13:51:00;;;;;;;2.27;2.07;;;25.40;75.30;;;;;;6300155;28;20198;-62
2022/06/08 13:54:04;;;;;;;5.50;2.87;;;25.50;76.10;;;;;;6300187;28;20227;-63
2022/06/08 13:57:11;;;;;;;2.40;2.20;;;25.40;76.10;;;;;;6300095;28;20222;-63
2022/06/08 14:00:16;;;;;;;4.03;2.90;;;25.30;74.60;;;;;;6300330;28;20652;-63
2022/06/08 14:03:23;;;;;;;3.37;2.50;;;25.30;74.50;;;;;;6299855;28;20689;-63
2022/06/08 14:13:22;;;;;;;2.20;2.10;;;25.20;72.60;;;;;;6300863;28;20230;-62
2022/06/08 14:16:25;;;;;;;2.27;2.10;;;25.30;73.30;;;;;;6300663;28;20242;-63
2022/06/08 14:19:31;;;;;;;3.03;2.37;;;25.50;72.80;;;;;;6300234;28;20254;-63
2022/06/08 14:22:36;;;;;;;4.03;3.60;;;25.50;71.40;;;;;;6300150;28;20592;-63
2022/06/08 14:25:39;;;;;;;2.67;2.47;;;25.50;71.60;;;;;;6299960;28;20233;-63
2022/06/08 14:29:04;;;;;;;2.53;2.17;;;25.50;71.00;;;;;;6299307;28;20241;-63
2022/06/08 14:32:15;;;;;;;2.37;1.80;;;25.50;69.80;;;;;;6299610;28;20281;-63
2022/06/08 14:35:22;;;;;;;2.80;2.03;;;25.40;69.90;;;;;;6303057;28;20231;-63
2022/06/08 14:38:47;;;;;;;2.60;2.40;;;25.50;70.50;;;;;;6300139;28;20237;-62
2022/06/08 14:41:57;;;;;;;2.80;1.90;;;25.50;71.40;;;;;;6299942;28;20218;-62
2022/06/08 14:45:02;;;;;;;7.00;4.23;;;25.60;71.20;;;;;;6299908;28;20315;-62
2022/06/08 14:48:14;;;;;;;2.40;2.20;;;25.60;72.00;;;;;;6299575;28;20237;-62
2022/06/08 14:51:20;;;;;;;3.00;2.70;;;25.60;71.20;;;;;;6299214;28;20566;-62
2022/06/08 14:54:25;;;;;;;2.77;2.57;;;25.70;72.00;;;;;;6299860;28;20234;-62
2022/06/08 14:57:32;;;;;;;2.60;2.00;;;25.60;73.70;;;;;;6299649;28;20227;-63
2022/06/08 15:00:37;;;;;;;3.13;2.60;;;25.20;75.60;;;;;;6299800;28;20227;-62
2022/06/08 15:03:40;;;;;;;2.63;2.07;;;25.00;77.80;;;;;;6299082;28;20270;-62
2022/06/08 15:06:43;;;;;;;3.03;2.83;;;24.90;79.20;;;;;;6299600;28;20242;-62
2022/06/08 15:09:48;;;;;;;4.53;2.53;;;24.90;79.90;;;;;;6299500;28;20227;-63
2022/06/08 15:12:52;;;;;;;4.47;2.80;;;25.00;78.90;;;;;;6299248;28;20703;-63
2022/06/08 15:15:58;;;;;;;2.67;2.47;;;24.90;79.10;;;;;;6299391;28;20318;-64
2022/06/08 15:19:01;;;;;;;4.20;2.77;;;24.80;79.30;;;;;;6298980;28;20254;-62
2022/06/08 15:22:06;;;;;;;3.73;2.97;;;24.60;79.40;;;;;;6298821;28;20250;-62
2022/06/08 15:25:10;;;;;;;3.00;2.80;;;24.50;80.80;;;;;;6299051;28;20227;-62
2022/06/08 15:28:16;;;;;;;4.07;3.67;;;24.40;81.20;;;;;;6299621;28;20238;-63
2022/06/08 15:31:22;;;;;;;3.20;3.00;;;24.50;82.10;;;;;;6298862;28;20584;-63
2022/06/08 15:34:29;;;;;;;4.33;2.97;;;24.50;82.90;;;;;;6290277;28;20242;-63
2022/06/08 15:37:35;;;;;;;2.90;2.70;;;24.50;83.40;;;;;;6299207;28;20526;-64
2022/06/08 15:40:38;;;;;;;2.93;2.60;;;24.30;83.80;;;;;;6302886;28;20223;-63
2022/06/08 15:43:42;;;;;;;5.20;2.90;;;24.30;83.70;;;;;;6303121;28;20222;-64
2022/06/08 15:46:47;;;;;;;5.20;2.93;;;24.20;84.00;;;;;;6302730;28;20599;-62
2022/06/08 15:49:53;;;;;;;3.10;2.80;;;24.30;84.30;;;;;;6303854;28;20256;-65
2022/06/08 15:53:02;;;;;;;5.60;2.70;;;24.10;84.40;;;;;;6303380;28;20723;-64
2022/06/08 15:56:09;;;;;;;3.87;2.70;;;24.10;84.40;;;;;;6303704;28;20846;-64
2022/06/08 15:59:16;;;;;;;5.40;2.70;;;23.90;84.80;;;;;;6303659;28;20237;-63
2022/06/08 16:02:21;;;;;;;2.77;2.57;;;23.90;85.00;;;;;;6303490;28;20304;-63
2022/06/08 16:05:25;;;;;;;2.53;2.33;;;23.90;85.80;;;;;;6303625;28;20295;-64
2022/06/08 16:08:29;;;;;;;3.90;2.60;;;23.90;85.90;;;;;;6303314;28;20223;-64
2022/06/08 16:11:33;;;;;;;3.03;2.37;;;23.90;85.50;;;;;;6303088;28;20677;-63
2022/06/08 16:14:37;;;;;;;3.73;3.00;;;23.70;86.20;;;;;;6302804;28;20547;-64
2022/06/08 16:17:42;;;;;;;2.80;2.60;;;23.70;86.70;;;;;;6302740;28;20246;-62
2022/06/08 16:20:46;;;;;;;5.30;2.27;;;23.70;87.30;;;;;;6302377;28;20215;-62
2022/06/08 16:23:49;;;;;;;3.27;2.50;;;23.50;87.60;;;;;;6302296;28;20226;-62
2022/06/08 16:26:53;;;;;;;2.90;2.43;;;23.50;88.00;;;;;;6302536;28;20601;-62
2022/06/08 16:29:56;;;;;;;3.10;2.77;;;23.40;88.00;;;;;;6302824;28;20310;-62
2022/06/08 16:33:01;;;;;;;4.83;2.80;;;23.40;88.10;;;;;;6302555;28;20219;-62
2022/06/08 16:36:06;;;;;;;3.97;3.03;;;23.40;89.40;;;;;;6302270;28;20235;-62
2022/06/08 16:39:10;;;;;;;2.63;2.43;;;23.40;88.40;;;;;;6302507;28;20250;-62